Time;durP1;ratioP1;P1;durP2;ratioP2;P2;SDS_P1;SDS_P2;PMS_P1;PMS_P2;Temp;Humidity;BMP_temperature;BMP_pressure;BME280_temperature;BME280_humidity;BME280_pressure;Samples;Min_cycle;Max_cycle;Signal;HPM_P1;HPM_P2
2023/09/29 00:02:54;;;;;;;3.33;2.90;;;;;;;;;;5060154;28;20243;-38
2023/09/29 00:26:21;;;;;;;5.53;3.63;;;;;;;;;;5100692;28;20450;-49
2023/09/29 00:28:48;;;;;;;6.45;3.08;;;;;;;;;;5101271;28;20028;-48
2023/09/29 00:31:15;;;;;;;4.15;2.83;;;;;;;;;;5101213;28;20036;-49
2023/09/29 00:33:42;;;;;;;5.72;2.75;;;;;;;;;;5100898;28;20020;-39
2023/09/29 00:36:11;;;;;;;7.55;3.17;;;;;;;;;;5100258;28;20070;-45
2023/09/29 00:38:38;;;;;;;6.18;2.50;;;;;;;;;;5099715;28;20020;-45
2023/09/29 00:41:05;;;;;;;7.20;2.55;;;;;;;;;;5093990;28;20031;-50
2023/09/29 00:43:33;;;;;;;4.20;2.10;;;;;;;;;;5094334;28;20040;-41
2023/09/29 00:46:00;;;;;;;4.70;2.72;;;;;;;;;;5093862;28;20373;-42
2023/09/29 00:48:30;;;;;;;7.10;3.67;;;;;;;;;;5100786;28;20021;-47
2023/09/29 00:50:57;;;;;;;10.35;4.93;;;;;;;;;;5100938;28;20028;-36
2023/09/29 00:53:24;;;;;;;7.80;5.35;;;;;;;;;;5100833;28;20012;-41
2023/09/29 00:55:50;;;;;;;6.03;3.63;;;;;;;;;;5093227;28;20325;-37
2023/09/29 00:58:17;;;;;;;7.18;2.70;;;;;;;;;;5082924;28;20032;-38
2023/09/29 01:00:45;;;;;;;4.70;2.85;;;;;;;;;;5089299;28;20052;-44
2023/09/29 01:03:14;;;;;;;5.10;3.03;;;;;;;;;;5080244;28;20040;-45
2023/09/29 01:05:46;;;;;;;6.18;3.25;;;;;;;;;;5080686;28;20036;-37
2023/09/29 01:08:14;;;;;;;8.80;3.80;;;;;;;;;;5080252;28;20016;-36
2023/09/29 01:10:41;;;;;;;9.20;5.03;;;;;;;;;;5080512;28;20100;-47
2023/09/29 01:13:09;;;;;;;7.10;4.40;;;;;;;;;;5080272;28;20019;-47
2023/09/29 01:15:36;;;;;;;5.25;3.28;;;;;;;;;;5080057;28;20056;-43
2023/09/29 01:18:03;;;;;;;4.25;2.85;;;;;;;;;;5079873;28;20024;-48
2023/09/29 01:20:30;;;;;;;6.70;2.97;;;;;;;;;;5080332;28;20188;-39
2023/09/29 01:22:57;;;;;;;6.88;4.05;;;;;;;;;;5079914;28;20215;-41
2023/09/29 01:25:24;;;;;;;6.45;3.33;;;;;;;;;;5076478;28;20240;-40
2023/09/29 01:27:52;;;;;;;7.55;3.20;;;;;;;;;;5066597;28;20021;-45
2023/09/29 01:30:20;;;;;;;7.30;3.45;;;;;;;;;;5066549;28;20033;-35
2023/09/29 01:32:47;;;;;;;7.10;3.80;;;;;;;;;;5066223;28;20044;-40
2023/09/29 01:35:17;;;;;;;8.35;3.80;;;;;;;;;;5066892;28;20081;-39
2023/09/29 01:37:48;;;;;;;6.20;2.60;;;;;;;;;;5066421;28;20024;-41
2023/09/29 01:40:15;;;;;;;6.75;2.80;;;;;;;;;;5066847;28;20300;-55
2023/09/29 01:42:43;;;;;;;4.57;2.30;;;;;;;;;;5070596;28;20051;-47
2023/09/29 01:45:15;;;;;;;5.97;2.25;;;;;;;;;;5069521;28;20071;-53
2023/09/29 01:47:42;;;;;;;;;;;;;;;;;;5066772;28;20097;-44
2023/09/29 01:50:14;;;;;;;8.65;4.38;;;;;;;;;;5068156;28;20215;-47
2023/09/29 01:52:42;;;;;;;6.75;3.05;;;;;;;;;;5073279;28;20020;-46
2023/09/29 01:55:09;;;;;;;5.00;2.88;;;;;;;;;;5085455;28;20032;-44
2023/09/29 01:57:37;;;;;;;9.02;3.17;;;;;;;;;;5066985;28;20031;-42
2023/09/29 02:00:04;;;;;;;6.22;3.60;;;;;;;;;;5065874;28;20029;-50
2023/09/29 02:02:31;;;;;;;8.90;3.47;;;;;;;;;;5071138;28;20036;-44
2023/09/29 02:04:58;;;;;;;66.40;59.88;;;;;;;;;;5076647;28;20065;-48
2023/09/29 02:07:25;;;;;;;27.58;24.65;;;;;;;;;;5065930;28;20021;-48
2023/09/29 02:09:51;;;;;;;16.75;6.65;;;;;;;;;;5066116;28;20040;-47
2023/09/29 02:12:18;;;;;;;10.60;5.20;;;;;;;;;;5070362;28;20052;-45
2023/09/29 02:14:45;;;;;;;7.63;4.80;;;;;;;;;;5072368;28;20099;-50
2023/09/29 02:17:13;;;;;;;6.40;3.92;;;;;;;;;;5085670;28;20289;-45
2023/09/29 02:19:39;;;;;;;5.95;2.90;;;;;;;;;;5085988;28;20192;-46
2023/09/29 02:22:06;;;;;;;5.70;2.20;;;;;;;;;;5085631;28;20021;-49
2023/09/29 02:24:33;;;;;;;4.32;2.53;;;;;;;;;;5085586;28;20072;-49
2023/09/29 02:27:00;;;;;;;8.27;4.22;;;;;;;;;;5085758;28;20020;-49
2023/09/29 02:29:27;;;;;;;9.27;5.18;;;;;;;;;;5085228;28;20052;-50
2023/09/29 02:31:57;;;;;;;8.73;4.20;;;;;;;;;;5076218;28;20040;-46
2023/09/29 02:34:24;;;;;;;9.43;4.40;;;;;;;;;;5073483;28;20055;-46
2023/09/29 02:36:52;;;;;;;4.63;3.22;;;;;;;;;;5069727;28;20031;-45
2023/09/29 02:39:19;;;;;;;16.08;10.50;;;;;;;;;;5073890;28;20096;-46
2023/09/29 02:41:46;;;;;;;19.77;6.82;;;;;;;;;;5070579;28;20027;-51
2023/09/29 02:44:13;;;;;;;6.90;4.40;;;;;;;;;;5081604;28;20032;-40
2023/09/29 02:46:39;;;;;;;11.63;7.10;;;;;;;;;;5085403;28;20028;-48
2023/09/29 02:49:09;;;;;;;7.82;3.83;;;;;;;;;;5085551;28;20028;-42
2023/09/29 02:51:37;;;;;;;6.95;3.55;;;;;;;;;;5085279;28;20087;-47
2023/09/29 02:54:04;;;;;;;5.22;2.90;;;;;;;;;;5077670;28;20043;-44
2023/09/29 02:56:30;;;;;;;7.18;4.00;;;;;;;;;;5072185;28;20020;-43
2023/09/29 02:59:01;;;;;;;8.13;2.75;;;;;;;;;;5070928;28;20032;-47
2023/09/29 03:01:28;;;;;;;4.22;2.38;;;;;;;;;;5075724;28;20021;-44
2023/09/29 03:03:58;;;;;;;3.13;2.25;;;;;;;;;;5084917;28;20081;-42
2023/09/29 03:06:25;;;;;;;5.00;2.88;;;;;;;;;;5083745;28;20024;-43
2023/09/29 03:08:56;;;;;;;6.68;3.47;;;;;;;;;;5081814;28;20032;-44
2023/09/29 03:11:25;;;;;;;6.57;3.00;;;;;;;;;;5084776;28;20316;-44
2023/09/29 03:13:55;;;;;;;4.50;2.60;;;;;;;;;;5078843;28;20267;-44
2023/09/29 03:16:25;;;;;;;6.55;3.08;;;;;;;;;;5082295;28;20085;-42
2023/09/29 03:18:52;;;;;;;4.25;2.42;;;;;;;;;;5084461;28;20326;-44
2023/09/29 03:21:19;;;;;;;5.95;2.80;;;;;;;;;;5084738;28;20096;-44
2023/09/29 03:23:45;;;;;;;4.53;2.90;;;;;;;;;;5084424;28;20169;-43
2023/09/29 03:26:17;;;;;;;4.43;2.38;;;;;;;;;;5077663;28;20091;-42
2023/09/29 03:28:44;;;;;;;3.97;2.80;;;;;;;;;;5064464;28;20135;-43
2023/09/29 03:31:12;;;;;;;23.55;2.97;;;;;;;;;;5064545;28;20013;-41
2023/09/29 03:33:39;;;;;;;29.08;4.40;;;;;;;;;;5064220;28;20350;-44
2023/09/29 03:36:06;;;;;;;19.10;3.30;;;;;;;;;;5064255;28;20320;-45
2023/09/29 03:38:32;;;;;;;22.73;3.35;;;;;;;;;;5064202;28;20009;-45
2023/09/29 03:40:59;;;;;;;27.05;4.03;;;;;;;;;;5064128;28;20017;-48
2023/09/29 03:43:26;;;;;;;21.98;3.50;;;;;;;;;;5064029;28;20151;-40
2023/09/29 03:45:55;;;;;;;10.52;2.30;;;;;;;;;;5063954;28;20044;-41
2023/09/29 03:48:24;;;;;;;10.93;2.70;;;;;;;;;;5063748;28;20326;-43
2023/09/29 03:50:52;;;;;;;7.40;2.10;;;;;;;;;;5063916;28;20058;-45
2023/09/29 03:53:18;;;;;;;7.95;2.17;;;;;;;;;;5063907;28;20036;-40
2023/09/29 03:55:45;;;;;;;7.75;2.40;;;;;;;;;;5064234;28;20032;-43
2023/09/29 03:58:12;;;;;;;6.60;2.22;;;;;;;;;;5066339;28;20308;-40
2023/09/29 04:00:38;;;;;;;5.20;1.90;;;;;;;;;;5072674;28;20021;-45
2023/09/29 04:03:06;;;;;;;6.65;1.92;;;;;;;;;;5063903;28;20066;-42
2023/09/29 04:05:33;;;;;;;6.93;2.20;;;;;;;;;;5064312;28;20350;-45
2023/09/29 04:08:01;;;;;;;5.13;2.15;;;;;;;;;;5063981;28;20012;-43
2023/09/29 04:10:28;;;;;;;3.83;1.85;;;;;;;;;;5064267;28;20178;-41
2023/09/29 04:12:54;;;;;;;4.82;2.10;;;;;;;;;;5064044;28;20096;-45
2023/09/29 04:15:23;;;;;;;4.90;2.60;;;;;;;;;;5063823;28;20032;-50
2023/09/29 04:17:50;;;;;;;5.38;2.13;;;;;;;;;;5063723;28;20181;-48
2023/09/29 04:20:17;;;;;;;4.50;2.05;;;;;;;;;;5064239;28;20212;-43
2023/09/29 04:22:45;;;;;;;5.20;1.98;;;;;;;;;;5063808;28;20084;-40
2023/09/29 04:25:12;;;;;;;5.38;2.15;;;;;;;;;;5063568;28;20049;-44
2023/09/29 04:27:40;;;;;;;4.43;2.22;;;;;;;;;;5063865;28;20033;-45
2023/09/29 04:30:08;;;;;;;7.55;2.33;;;;;;;;;;5077922;28;20025;-41
2023/09/29 04:32:34;;;;;;;8.70;2.35;;;;;;;;;;5080325;28;20020;-44
2023/09/29 04:35:01;;;;;;;3.47;1.77;;;;;;;;;;5063963;28;20052;-44
2023/09/29 04:37:28;;;;;;;3.20;1.83;;;;;;;;;;5063712;28;20017;-45
2023/09/29 04:39:55;;;;;;;3.42;1.60;;;;;;;;;;5063843;28;20014;-41
2023/09/29 04:42:22;;;;;;;3.13;1.33;;;;;;;;;;5066714;28;20036;-41
2023/09/29 04:44:49;;;;;;;3.38;1.50;;;;;;;;;;5083347;28;20098;-46
2023/09/29 04:47:17;;;;;;;5.78;2.47;;;;;;;;;;5081903;28;20300;-42
2023/09/29 04:49:44;;;;;;;6.40;1.70;;;;;;;;;;5083893;28;20051;-40
2023/09/29 04:52:10;;;;;;;5.90;1.80;;;;;;;;;;5083517;28;20026;-43
2023/09/29 04:54:39;;;;;;;4.28;1.75;;;;;;;;;;5074112;28;20025;-40
2023/09/29 04:57:05;;;;;;;5.95;2.30;;;;;;;;;;5063834;28;20033;-47
2023/09/29 04:59:32;;;;;;;5.95;2.25;;;;;;;;;;5064790;28;20025;-43
2023/09/29 05:01:58;;;;;;;5.32;2.33;;;;;;;;;;5081531;28;20196;-45
2023/09/29 05:04:25;;;;;;;7.05;2.20;;;;;;;;;;5067465;28;20228;-49
2023/09/29 05:06:52;;;;;;;4.78;2.00;;;;;;;;;;5083996;28;20020;-46
2023/09/29 05:09:19;;;;;;;6.25;2.33;;;;;;;;;;5087307;28;20054;-44
2023/09/29 05:11:46;;;;;;;7.97;2.13;;;;;;;;;;5086994;28;20113;-47
2023/09/29 05:14:13;;;;;;;3.80;2.05;;;;;;;;;;5087024;28;20028;-42
2023/09/29 05:16:40;;;;;;;6.60;2.42;;;;;;;;;;5086596;28;20027;-45
2023/09/29 05:19:06;;;;;;;6.72;2.60;;;;;;;;;;5086980;28;20032;-44
2023/09/29 05:21:34;;;;;;;5.38;2.42;;;;;;;;;;5086907;28;20038;-49
2023/09/29 05:24:01;;;;;;;7.75;2.30;;;;;;;;;;5079765;28;20055;-45
2023/09/29 05:26:28;;;;;;;9.68;3.00;;;;;;;;;;5075443;28;20033;-41
2023/09/29 05:28:55;;;;;;;10.20;2.80;;;;;;;;;;5066677;28;20088;-48
2023/09/29 05:31:22;;;;;;;12.07;2.28;;;;;;;;;;5066674;28;20084;-45
2023/09/29 05:33:53;;;;;;;13.30;2.42;;;;;;;;;;5066442;28;20040;-40
2023/09/29 05:36:21;;;;;;;9.77;1.73;;;;;;;;;;5066619;28;20059;-41
2023/09/29 05:38:47;;;;;;;6.88;1.83;;;;;;;;;;5066373;28;20266;-40
2023/09/29 05:41:14;;;;;;;3.33;1.35;;;;;;;;;;5066570;28;20356;-46
2023/09/29 05:43:41;;;;;;;16.08;2.10;;;;;;;;;;5066431;28;20019;-41
2023/09/29 05:46:08;;;;;;;9.48;2.00;;;;;;;;;;5066431;28;20043;-43
2023/09/29 05:48:34;;;;;;;10.63;1.40;;;;;;;;;;5066571;28;20072;-43
2023/09/29 05:51:01;;;;;;;11.13;1.95;;;;;;;;;;5066318;28;20017;-43
2023/09/29 05:53:28;;;;;;;12.40;1.48;;;;;;;;;;5066302;28;20021;-39
2023/09/29 05:55:54;;;;;;;9.48;1.70;;;;;;;;;;5066062;28;20024;-41
2023/09/29 05:58:22;;;;;;;4.50;1.25;;;;;;;;;;5066257;28;20028;-42
2023/09/29 06:00:49;;;;;;;5.63;1.13;;;;;;;;;;5066231;28;20028;-43
2023/09/29 06:03:15;;;;;;;2.15;1.08;;;;;;;;;;5064805;28;20025;-46
2023/09/29 06:05:42;;;;;;;5.45;1.00;;;;;;;;;;5065409;28;20106;-39
2023/09/29 06:08:09;;;;;;;4.45;1.40;;;;;;;;;;5064353;28;20075;-44
2023/09/29 06:10:37;;;;;;;1.90;1.30;;;;;;;;;;5064568;28;20033;-47
2023/09/29 06:13:05;;;;;;;3.22;1.10;;;;;;;;;;5064057;28;20017;-43
2023/09/29 06:15:32;;;;;;;1.73;1.33;;;;;;;;;;5064474;28;20032;-50
2023/09/29 06:17:59;;;;;;;2.35;1.00;;;;;;;;;;5063693;28;20043;-48
2023/09/29 06:20:25;;;;;;;2.00;1.00;;;;;;;;;;5064424;28;20052;-46
2023/09/29 06:22:52;;;;;;;2.03;0.90;;;;;;;;;;5064079;28;20277;-40
2023/09/29 06:25:18;;;;;;;2.05;1.00;;;;;;;;;;5063774;28;20360;-47
2023/09/29 06:27:46;;;;;;;0.93;0.75;;;;;;;;;;5063937;28;20033;-40
2023/09/29 06:30:13;;;;;;;1.05;0.75;;;;;;;;;;5064266;28;20032;-44
2023/09/29 06:32:39;;;;;;;2.47;0.70;;;;;;;;;;5063936;28;20116;-46
2023/09/29 06:35:06;;;;;;;4.22;0.95;;;;;;;;;;5065785;28;20033;-40
2023/09/29 06:37:33;;;;;;;2.75;0.80;;;;;;;;;;5065490;28;20190;-50
2023/09/29 06:39:59;;;;;;;3.10;0.98;;;;;;;;;;5065535;28;20251;-40
2023/09/29 06:42:26;;;;;;;3.42;0.75;;;;;;;;;;5065385;28;20040;-42
2023/09/29 06:44:53;;;;;;;2.05;0.60;;;;;;;;;;5065692;28;20024;-40
2023/09/29 06:47:19;;;;;;;1.63;0.80;;;;;;;;;;5065110;28;20091;-39
2023/09/29 06:49:46;;;;;;;2.50;1.10;;;;;;;;;;5065547;28;20157;-42
2023/09/29 06:52:14;;;;;;;2.58;1.00;;;;;;;;;;5065242;28;20213;-43
2023/09/29 06:54:40;;;;;;;3.28;0.70;;;;;;;;;;5065094;28;20033;-43
2023/09/29 06:57:07;;;;;;;1.98;0.82;;;;;;;;;;5065141;28;20013;-42
2023/09/29 06:59:34;;;;;;;0.70;0.50;;;;;;;;;;5065300;28;20297;-40
2023/09/29 07:02:01;;;;;;;1.25;0.70;;;;;;;;;;5064789;28;20330;-46
2023/09/29 07:04:27;;;;;;;1.17;0.50;;;;;;;;;;5065148;28;20033;-43
2023/09/29 07:06:54;;;;;;;1.00;0.70;;;;;;;;;;5065030;28;20085;-39
2023/09/29 07:09:21;;;;;;;1.38;0.50;;;;;;;;;;5064793;28;20040;-39
2023/09/29 07:11:48;;;;;;;2.83;0.80;;;;;;;;;;5064810;28;20017;-42
2023/09/29 07:14:14;;;;;;;2.15;0.70;;;;;;;;;;5064703;28;20313;-45
2023/09/29 07:16:42;;;;;;;1.33;0.70;;;;;;;;;;5064260;28;20320;-44
2023/09/29 07:19:12;;;;;;;0.82;0.63;;;;;;;;;;5064978;28;20017;-47
2023/09/29 07:21:40;;;;;;;2.40;0.80;;;;;;;;;;5064725;28;20016;-49
2023/09/29 07:24:07;;;;;;;1.25;0.73;;;;;;;;;;5063777;28;20092;-42
2023/09/29 07:26:34;;;;;;;1.48;0.70;;;;;;;;;;5064495;28;20033;-49
2023/09/29 07:29:03;;;;;;;1.40;0.70;;;;;;;;;;5064597;28;20029;-40
2023/09/29 07:31:46;;;;;;;3.20;0.68;;;;;;;;;;5064236;28;20332;-43
2023/09/29 07:34:12;;;;;;;2.55;0.77;;;;;;;;;;5064428;28;20316;-40
2023/09/29 07:36:41;;;;;;;3.28;0.88;;;;;;;;;;5064330;28;20093;-45
2023/09/29 07:39:07;;;;;;;2.60;0.70;;;;;;;;;;5064624;28;20035;-41
2023/09/29 07:41:34;;;;;;;2.10;0.70;;;;;;;;;;5064317;28;20025;-45
2023/09/29 07:44:01;;;;;;;2.03;0.75;;;;;;;;;;5064345;28;20095;-42
2023/09/29 07:46:27;;;;;;;2.15;0.77;;;;;;;;;;5064185;28;20020;-41
2023/09/29 07:48:54;;;;;;;2.50;0.77;;;;;;;;;;5064249;28;20040;-47
2023/09/29 07:51:21;;;;;;;1.73;1.00;;;;;;;;;;5064111;28;20033;-40
2023/09/29 07:53:48;;;;;;;7.10;0.88;;;;;;;;;;5063910;28;20025;-42
2023/09/29 07:56:17;;;;;;;2.10;1.17;;;;;;;;;;5064149;28;20013;-43
2023/09/29 07:58:44;;;;;;;3.15;0.80;;;;;;;;;;5062796;28;20220;-44
2023/09/29 08:01:10;;;;;;;4.53;1.00;;;;;;;;;;5063950;28;20241;-44
2023/09/29 08:03:37;;;;;;;2.83;1.25;;;;;;;;;;5063919;28;20024;-40
2023/09/29 08:06:04;;;;;;;1.65;0.82;;;;;;;;;;5063916;28;20029;-40
2023/09/29 08:08:31;;;;;;;1.85;1.10;;;;;;;;;;5063716;28;20017;-41
2023/09/29 08:10:58;;;;;;;3.00;1.00;;;;;;;;;;5063967;28;20338;-45
2023/09/29 08:13:25;;;;;;;2.78;1.00;;;;;;;;;;5063798;28;20220;-44
2023/09/29 08:15:52;;;;;;;2.08;1.10;;;;;;;;;;5063510;28;20024;-47
2023/09/29 08:18:19;;;;;;;1.88;0.90;;;;;;;;;;5063576;28;20017;-44
2023/09/29 08:20:46;;;;;;;4.07;0.98;;;;;;;;;;5064249;28;20059;-40
2023/09/29 08:23:13;;;;;;;1.90;0.85;;;;;;;;;;5063575;28;20208;-41
2023/09/29 08:25:43;;;;;;;3.60;0.93;;;;;;;;;;5063694;28;20041;-47
2023/09/29 08:28:09;;;;;;;3.83;1.20;;;;;;;;;;5063753;28;20220;-40
2023/09/29 08:30:36;;;;;;;2.42;1.02;;;;;;;;;;5064022;28;20025;-44
2023/09/29 08:33:03;;;;;;;2.47;1.00;;;;;;;;;;5063783;28;20036;-46
2023/09/29 08:35:29;;;;;;;2.22;0.75;;;;;;;;;;5064233;28;20079;-48
2023/09/29 08:37:57;;;;;;;1.40;0.90;;;;;;;;;;5067575;28;20020;-45
2023/09/29 08:40:23;;;;;;;3.78;1.00;;;;;;;;;;5068169;28;20020;-43
2023/09/29 08:42:50;;;;;;;2.13;0.88;;;;;;;;;;5067590;28;20032;-40
2023/09/29 08:45:20;;;;;;;3.83;1.05;;;;;;;;;;5067353;28;20028;-43
2023/09/29 08:47:53;;;;;;;2.17;0.95;;;;;;;;;;5067689;28;20025;-40
2023/09/29 08:50:24;;;;;;;2.90;1.10;;;;;;;;;;5067880;28;20059;-40
2023/09/29 08:52:52;;;;;;;3.03;0.98;;;;;;;;;;5067522;28;20017;-42
2023/09/29 08:55:19;;;;;;;3.15;1.10;;;;;;;;;;5067737;28;20033;-43
2023/09/29 08:57:46;;;;;;;2.20;0.98;;;;;;;;;;5067122;28;20027;-46
2023/09/29 09:00:13;;;;;;;1.63;0.90;;;;;;;;;;5067718;28;20300;-47
2023/09/29 09:02:44;;;;;;;2.42;0.80;;;;;;;;;;5067193;28;20392;-43
2023/09/29 09:05:11;;;;;;;2.55;1.05;;;;;;;;;;5067425;28;20044;-41
2023/09/29 09:07:43;;;;;;;4.63;0.80;;;;;;;;;;5067072;28;20025;-43
2023/09/29 09:10:10;;;;;;;4.40;1.02;;;;;;;;;;5067533;28;20069;-44
2023/09/29 09:12:41;;;;;;;2.17;0.90;;;;;;;;;;5066880;28;20253;-43
2023/09/29 09:15:08;;;;;;;5.50;0.90;;;;;;;;;;5067294;28;20059;-44
2023/09/29 09:17:36;;;;;;;3.00;0.80;;;;;;;;;;5066988;28;20228;-46
2023/09/29 09:20:03;;;;;;;2.33;1.10;;;;;;;;;;5071821;28;20043;-47
2023/09/29 09:22:33;;;;;;;1.20;0.90;;;;;;;;;;5086537;28;20031;-47
2023/09/29 09:25:01;;;;;;;1.35;0.90;;;;;;;;;;5086839;28;20240;-41
2023/09/29 09:27:37;;;;;;;3.55;1.20;;;;;;;;;;5086689;28;20138;-42
2023/09/29 09:30:04;;;;;;;2.83;1.20;;;;;;;;;;5087150;28;20035;-39
2023/09/29 09:32:31;;;;;;;1.52;1.10;;;;;;;;;;5086616;28;20036;-45
2023/09/29 09:34:58;;;;;;;2.47;1.13;;;;;;;;;;5087013;28;20226;-44
2023/09/29 09:37:28;;;;;;;5.53;1.10;;;;;;;;;;5086769;28;20021;-46
2023/09/29 09:39:55;;;;;;;2.80;1.10;;;;;;;;;;5086816;28;20029;-41
2023/09/29 09:42:26;;;;;;;2.83;0.95;;;;;;;;;;5086667;28;20365;-44
2023/09/29 09:44:59;;;;;;;4.80;1.10;;;;;;;;;;5087038;28;20028;-43
2023/09/29 09:47:26;;;;;;;2.88;0.98;;;;;;;;;;5085854;28;20099;-39
2023/09/29 09:49:59;;;;;;;2.88;0.95;;;;;;;;;;5086786;28;20080;-45
2023/09/29 09:52:28;;;;;;;3.33;1.02;;;;;;;;;;5086404;28;20217;-49
2023/09/29 09:54:57;;;;;;;2.67;1.10;;;;;;;;;;5086555;28;20040;-40
2023/09/29 09:57:33;;;;;;;3.90;1.15;;;;;;;;;;5086318;28;20028;-40
2023/09/29 10:00:10;;;;;;;5.07;1.38;;;;;;;;;;5086411;28;20033;-42
2023/09/29 10:02:57;;;;;;;2.35;1.20;;;;;;;;;;5086184;28;20255;-46
2023/09/29 10:05:26;;;;;;;2.38;1.33;;;;;;;;;;5086445;28;20032;-39
2023/09/29 10:07:55;;;;;;;2.92;1.45;;;;;;;;;;5086077;28;20051;-48
2023/09/29 10:10:31;;;;;;;5.22;1.98;;;;;;;;;;5073725;28;20268;-42
2023/09/29 10:13:03;;;;;;;3.42;1.85;;;;;;;;;;5086127;28;20032;-48
2023/09/29 10:15:29;;;;;;;6.47;1.85;;;;;;;;;;5086229;28;20043;-44
2023/09/29 10:18:22;;;;;;;3.45;1.98;;;;;;;;;;5085785;28;20032;-43
2023/09/29 10:21:00;;;;;;;3.17;1.65;;;;;;;;;;5084873;28;20047;-42
2023/09/29 10:23:27;;;;;;;5.85;1.75;;;;;;;;;;5083397;28;20254;-45
2023/09/29 10:26:04;;;;;;;3.80;1.75;;;;;;;;;;5065676;28;20037;-45
2023/09/29 10:28:35;;;;;;;2.50;1.65;;;;;;;;;;5065439;28;20040;-42
2023/09/29 10:31:14;;;;;;;5.55;2.15;;;;;;;;;;5071394;28;20032;-40
2023/09/29 10:33:54;;;;;;;4.28;2.30;;;;;;;;;;5076684;28;20028;-48
2023/09/29 10:36:23;;;;;;;5.88;2.95;;;;;;;;;;5072003;28;20035;-42
2023/09/29 10:38:50;;;;;;;6.00;3.28;;;;;;;;;;5073111;28;20033;-41
2023/09/29 10:41:18;;;;;;;8.15;3.15;;;;;;;;;;5068880;28;20021;-46
2023/09/29 10:43:48;;;;;;;6.40;2.75;;;;;;;;;;5065497;28;20055;-42
2023/09/29 10:46:22;;;;;;;5.32;2.88;;;;;;;;;;5065176;28;20020;-44
2023/09/29 10:48:50;;;;;;;13.68;3.00;;;;;;;;;;5065362;28;20075;-45
2023/09/29 10:51:23;;;;;;;10.48;2.80;;;;;;;;;;5075038;28;20040;-49
2023/09/29 10:53:50;;;;;;;7.45;2.80;;;;;;;;;;5081698;28;20028;-44
2023/09/29 10:56:23;;;;;;;12.23;2.67;;;;;;;;;;5065161;28;20028;-46
2023/09/29 10:58:54;;;;;;;12.77;2.58;;;;;;;;;;5064039;28;20076;-42
2023/09/29 11:01:21;;;;;;;12.50;2.47;;;;;;;;;;5064957;28;20198;-37
2023/09/29 11:03:50;;;;;;;12.45;2.35;;;;;;;;;;5064936;28;20196;-43
2023/09/29 11:06:18;;;;;;;6.13;1.75;;;;;;;;;;5064796;28;20016;-43
2023/09/29 11:08:52;;;;;;;13.32;2.40;;;;;;;;;;5064306;28;20083;-42
2023/09/29 11:11:18;;;;;;;8.07;1.80;;;;;;;;;;5063018;28;20013;-45
2023/09/29 11:13:53;;;;;;;4.53;1.63;;;;;;;;;;5062741;28;20056;-54
2023/09/29 11:16:24;;;;;;;3.70;2.20;;;;;;;;;;5062880;28;20190;-38
2023/09/29 11:18:51;;;;;;;6.35;2.38;;;;;;;;;;5062802;28;20300;-38
2023/09/29 11:21:19;;;;;;;7.43;3.05;;;;;;;;;;5063399;28;20032;-40
2023/09/29 11:23:49;;;;;;;8.23;2.75;;;;;;;;;;5063523;28;20039;-41
2023/09/29 11:26:16;;;;;;;4.50;3.05;;;;;;;;;;5064225;28;20236;-37
2023/09/29 11:28:52;;;;;;;8.95;3.28;;;;;;;;;;5064492;28;20083;-43
2023/09/29 11:31:20;;;;;;;7.63;3.15;;;;;;;;;;5064448;28;20137;-36
2023/09/29 11:33:47;;;;;;;6.22;3.00;;;;;;;;;;5064255;28;20041;-47
2023/09/29 11:36:17;;;;;;;3.70;2.35;;;;;;;;;;5064302;28;20080;-38
2023/09/29 11:38:47;;;;;;;9.10;3.20;;;;;;;;;;5064232;28;20029;-42
2023/09/29 11:41:23;;;;;;;5.22;2.60;;;;;;;;;;5064323;28;20033;-35
2023/09/29 11:43:50;;;;;;;4.97;2.53;;;;;;;;;;5064160;28;20080;-41
2023/09/29 11:46:18;;;;;;;7.35;3.55;;;;;;;;;;5064032;28;20025;-50
2023/09/29 11:48:46;;;;;;;8.57;3.20;;;;;;;;;;5064192;28;20025;-39
2023/09/29 11:51:14;;;;;;;9.75;3.22;;;;;;;;;;5064261;28;20082;-37
2023/09/29 11:53:42;;;;;;;6.28;2.90;;;;;;;;;;5063826;28;20096;-43
2023/09/29 11:56:09;;;;;;;4.70;2.30;;;;;;;;;;5063966;28;20040;-36
2023/09/29 11:58:37;;;;;;;4.65;2.58;;;;;;;;;;5063881;28;20132;-44
2023/09/29 12:01:06;;;;;;;5.30;2.47;;;;;;;;;;5063708;28;20028;-42
2023/09/29 12:03:34;;;;;;;6.07;2.70;;;;;;;;;;5063598;28;20245;-40
2023/09/29 12:06:02;;;;;;;4.40;2.20;;;;;;;;;;5062368;28;20025;-41
2023/09/29 12:08:29;;;;;;;10.35;2.80;;;;;;;;;;5063152;28;20033;-38
2023/09/29 12:10:57;;;;;;;4.20;2.50;;;;;;;;;;5063871;28;20031;-36
2023/09/29 12:13:23;;;;;;;3.20;2.00;;;;;;;;;;5063704;28;20021;-39
2023/09/29 12:15:50;;;;;;;8.85;2.40;;;;;;;;;;5063362;28;20320;-44
2023/09/29 12:18:17;;;;;;;7.63;2.42;;;;;;;;;;5063736;28;20017;-44
2023/09/29 12:20:44;;;;;;;4.35;2.25;;;;;;;;;;5064245;28;20067;-43
2023/09/29 12:23:11;;;;;;;3.65;2.10;;;;;;;;;;5063608;28;20212;-43
2023/09/29 12:25:39;;;;;;;4.18;2.00;;;;;;;;;;5062095;28;20053;-36
2023/09/29 12:28:06;;;;;;;4.50;2.00;;;;;;;;;;5062031;28;20071;-38
2023/09/29 12:30:34;;;;;;;4.22;2.05;;;;;;;;;;5062282;28;20304;-36
2023/09/29 12:33:00;;;;;;;4.28;1.90;;;;;;;;;;5062003;28;20036;-43
2023/09/29 12:35:28;;;;;;;6.38;2.35;;;;;;;;;;5061915;28;20025;-40
2023/09/29 12:37:55;;;;;;;5.30;2.03;;;;;;;;;;5061835;28;20037;-40
2023/09/29 12:40:22;;;;;;;5.00;2.10;;;;;;;;;;5063372;28;20090;-39
2023/09/29 12:42:51;;;;;;;5.38;1.85;;;;;;;;;;5063700;28;20017;-42
2023/09/29 12:45:21;;;;;;;5.40;2.00;;;;;;;;;;5063298;28;20032;-42
2023/09/29 12:47:48;;;;;;;6.03;2.00;;;;;;;;;;5063635;28;20031;-43
2023/09/29 12:50:16;;;;;;;6.93;2.10;;;;;;;;;;5063902;28;20041;-46
2023/09/29 12:52:44;;;;;;;83.65;9.38;;;;;;;;;;5063400;28;20033;-41
2023/09/29 12:55:12;;;;;;;8.90;2.67;;;;;;;;;;5063782;28;20261;-41
2023/09/29 12:57:38;;;;;;;9.27;2.63;;;;;;;;;;5063453;28;20036;-43
2023/09/29 13:00:05;;;;;;;5.05;2.88;;;;;;;;;;5063683;28;20033;-39
2023/09/29 13:02:32;;;;;;;14.13;3.75;;;;;;;;;;5063352;28;20317;-39
2023/09/29 13:04:59;;;;;;;6.65;2.75;;;;;;;;;;5063680;28;20071;-42
2023/09/29 13:07:26;;;;;;;17.40;4.95;;;;;;;;;;5063110;28;20064;-43
2023/09/29 13:09:52;;;;;;;9.95;2.75;;;;;;;;;;5063627;28;20024;-42
2023/09/29 13:12:19;;;;;;;3.95;1.95;;;;;;;;;;5063224;28;20033;-42
2023/09/29 13:14:47;;;;;;;6.90;2.30;;;;;;;;;;5063275;28;20053;-38
2023/09/29 13:17:14;;;;;;;6.60;2.67;;;;;;;;;;5063358;28;20017;-41
2023/09/29 13:19:41;;;;;;;6.47;2.53;;;;;;;;;;5063637;28;20320;-43
2023/09/29 13:22:07;;;;;;;8.55;4.65;;;;;;;;;;5064338;28;20029;-43
2023/09/29 13:24:34;;;;;;;22.55;20.15;;;;;;;;;;5066857;28;20147;-45
2023/09/29 13:27:02;;;;;;;11.55;6.30;;;;;;;;;;5066935;28;20232;-45
2023/09/29 13:29:29;;;;;;;4.03;3.15;;;;;;;;;;5066622;28;20032;-48
2023/09/29 13:31:55;;;;;;;4.68;2.70;;;;;;;;;;5066812;28;20291;-47
2023/09/29 13:34:22;;;;;;;5.95;3.22;;;;;;;;;;5066850;28;20300;-49
2023/09/29 13:36:49;;;;;;;6.95;2.65;;;;;;;;;;5066540;28;20037;-47
2023/09/29 13:39:15;;;;;;;3.95;2.17;;;;;;;;;;5066774;28;20017;-48
2023/09/29 13:41:42;;;;;;;4.25;2.35;;;;;;;;;;5066583;28;20025;-45
2023/09/29 13:44:10;;;;;;;3.00;1.80;;;;;;;;;;5066462;28;20041;-45
2023/09/29 13:46:36;;;;;;;4.57;2.00;;;;;;;;;;5066386;28;20028;-41
2023/09/29 13:49:04;;;;;;;4.55;2.00;;;;;;;;;;5066294;28;20033;-39
2023/09/29 13:51:31;;;;;;;5.18;1.90;;;;;;;;;;5066152;28;20095;-42
2023/09/29 13:53:58;;;;;;;4.43;2.20;;;;;;;;;;5066281;28;20035;-43
2023/09/29 13:56:26;;;;;;;5.22;2.10;;;;;;;;;;5066197;28;20025;-45
2023/09/29 13:58:52;;;;;;;4.07;1.92;;;;;;;;;;5066293;28;20033;-41
2023/09/29 14:01:19;;;;;;;4.13;1.80;;;;;;;;;;5066056;28;20017;-42
2023/09/29 14:03:46;;;;;;;3.20;1.90;;;;;;;;;;5066082;28;20051;-42
2023/09/29 14:06:18;;;;;;;4.05;1.98;;;;;;;;;;5065918;28;20092;-41
2023/09/29 14:08:45;;;;;;;6.97;2.10;;;;;;;;;;5065992;28;20407;-45
2023/09/29 14:11:12;;;;;;;4.95;1.80;;;;;;;;;;5065932;28;20025;-44
2023/09/29 14:13:38;;;;;;;3.33;2.00;;;;;;;;;;5065758;28;20099;-43
2023/09/29 14:16:06;;;;;;;3.60;2.10;;;;;;;;;;5065863;28;20367;-44
2023/09/29 14:18:33;;;;;;;4.55;2.05;;;;;;;;;;5065813;28;20036;-49
2023/09/29 14:21:01;;;;;;;4.45;1.80;;;;;;;;;;5065645;28;20033;-43
2023/09/29 14:23:28;;;;;;;4.30;2.00;;;;;;;;;;5065616;28;20020;-40
2023/09/29 14:25:55;;;;;;;3.53;2.05;;;;;;;;;;5065537;28;20049;-42
2023/09/29 14:28:21;;;;;;;6.00;1.95;;;;;;;;;;5065509;28;20257;-41
2023/09/29 14:30:48;;;;;;;4.13;2.15;;;;;;;;;;5065631;28;20075;-44
2023/09/29 14:33:15;;;;;;;4.60;1.80;;;;;;;;;;5065619;28;20024;-41
2023/09/29 14:35:41;;;;;;;6.25;2.15;;;;;;;;;;5065751;28;20218;-44
2023/09/29 14:38:09;;;;;;;14.23;2.40;;;;;;;;;;5065462;28;20016;-39
2023/09/29 14:40:36;;;;;;;13.65;3.05;;;;;;;;;;5066004;28;20052;-41
2023/09/29 14:43:04;;;;;;;22.17;3.42;;;;;;;;;;5065187;28;20037;-37
2023/09/29 14:45:30;;;;;;;27.17;3.00;;;;;;;;;;5065729;28;20048;-42
2023/09/29 14:47:57;;;;;;;24.35;4.07;;;;;;;;;;5065037;28;20025;-43
2023/09/29 14:50:24;;;;;;;34.13;4.53;;;;;;;;;;5065258;28;20063;-43
2023/09/29 14:52:50;;;;;;;32.72;4.35;;;;;;;;;;5064980;28;20066;-44
2023/09/29 14:55:17;;;;;;;27.13;3.83;;;;;;;;;;5065225;28;20032;-44
2023/09/29 14:57:43;;;;;;;17.00;3.05;;;;;;;;;;5064746;28;20028;-44
2023/09/29 15:00:12;;;;;;;17.65;3.45;;;;;;;;;;5065446;28;20017;-41
2023/09/29 15:02:40;;;;;;;23.17;3.20;;;;;;;;;;5065132;28;20025;-44
2023/09/29 15:05:06;;;;;;;16.42;3.13;;;;;;;;;;5065178;28;20036;-44
2023/09/29 15:07:34;;;;;;;34.03;4.38;;;;;;;;;;5064943;28;20016;-48